<?xml version="1.0" encoding="UTF-8" standalone="no" ?>
<gpx xmlns="http://www.topografix.com/GPX/1/1" xmlns:xsi="http://www.w3.org/2001/XMLSchema-instance" xsi:schemaLocation="http://www.topografix.com/GPX/1/1 http://www.topografix.com/GPX/1/1/gpx.xsd" version="1.1" creator="VisuGPX - https://www.visugpx.com">
  <metadata>
    <name>Norvège</name>
  </metadata>
  <trk>
    <name><![CDATA[Tour d'Europe: étape 046]]></name>
    <trkseg>
      <trkpt lat="65.21612" lon="12.04282">
        <ele>39.349632</ele>
        <time>2020-08-13T06:49:16.812Z</time>
      </trkpt>
      <trkpt lat="65.21776" lon="12.04606">
        <ele>48.898366</ele>
        <time>2020-08-13T06:50:32.810Z</time>
      </trkpt>
      <trkpt lat="65.21899" lon="12.05015">
        <ele>47.242442</ele>
        <time>2020-08-13T06:51:16.842Z</time>
      </trkpt>
      <trkpt lat="65.22085" lon="12.0525">
        <ele>48.149912</ele>
        <time>2020-08-13T06:52:07.828Z</time>
      </trkpt>
      <trkpt lat="65.22128" lon="12.05782">
        <ele>42.294354</ele>
        <time>2020-08-13T06:52:47.802Z</time>
      </trkpt>
      <trkpt lat="65.22188" lon="12.06262">
        <ele>44.375446</ele>
        <time>2020-08-13T06:53:27.806Z</time>
      </trkpt>
      <trkpt lat="65.22339" lon="12.06535">
        <ele>45.451212</ele>
        <time>2020-08-13T06:54:07.819Z</time>
      </trkpt>
      <trkpt lat="65.22537" lon="12.06723">
        <ele>47.157843</ele>
        <time>2020-08-13T06:54:53.806Z</time>
      </trkpt>
      <trkpt lat="65.22704" lon="12.07071">
        <ele>54.291179</ele>
        <time>2020-08-13T06:55:56.833Z</time>
      </trkpt>
      <trkpt lat="65.22847" lon="12.07425">
        <ele>59.782861</ele>
        <time>2020-08-13T06:57:07.826Z</time>
      </trkpt>
      <trkpt lat="65.23036" lon="12.07665">
        <ele>53.333833</ele>
        <time>2020-08-13T06:57:47.841Z</time>
      </trkpt>
      <trkpt lat="65.23098" lon="12.08201">
        <ele>43.850196</ele>
        <time>2020-08-13T06:58:20.815Z</time>
      </trkpt>
      <trkpt lat="65.23139" lon="12.08668">
        <ele>47.575115</ele>
        <time>2020-08-13T06:59:27.818Z</time>
      </trkpt>
      <trkpt lat="65.23276" lon="12.09106">
        <ele>48.718625</ele>
        <time>2020-08-13T07:00:13.846Z</time>
      </trkpt>
      <trkpt lat="65.23448" lon="12.09367">
        <ele>46.517993</ele>
        <time>2020-08-13T07:00:53.819Z</time>
      </trkpt>
      <trkpt lat="65.2355" lon="12.0981">
        <ele>46.953277</ele>
        <time>2020-08-13T07:01:42.809Z</time>
      </trkpt>
      <trkpt lat="65.2362" lon="12.10283">
        <ele>45.3229</ele>
        <time>2020-08-13T07:02:25.833Z</time>
      </trkpt>
      <trkpt lat="65.2381" lon="12.10557">
        <ele>47.935049</ele>
        <time>2020-08-13T07:03:19.813Z</time>
      </trkpt>
      <trkpt lat="65.23867" lon="12.11054">
        <ele>55.995463</ele>
        <time>2020-08-13T07:04:26.798Z</time>
      </trkpt>
      <trkpt lat="65.23933" lon="12.11562">
        <ele>56.958259</ele>
        <time>2020-08-13T07:05:16.808Z</time>
      </trkpt>
      <trkpt lat="65.24099" lon="12.1185">
        <ele>47.811507</ele>
        <time>2020-08-13T07:05:56.833Z</time>
      </trkpt>
      <trkpt lat="65.24286" lon="12.12143">
        <ele>47.650245</ele>
        <time>2020-08-13T07:06:51.827Z</time>
      </trkpt>
      <trkpt lat="65.24489" lon="12.12246">
        <ele>47.180715</ele>
        <time>2020-08-13T07:07:31.812Z</time>
      </trkpt>
      <trkpt lat="65.24701" lon="12.12277">
        <ele>47.036011</ele>
        <time>2020-08-13T07:08:11.804Z</time>
      </trkpt>
      <trkpt lat="65.24914" lon="12.12243">
        <ele>51.567349</ele>
        <time>2020-08-13T07:09:14.823Z</time>
      </trkpt>
      <trkpt lat="65.25122" lon="12.12254">
        <ele>52.179534</ele>
        <time>2020-08-13T07:10:08.822Z</time>
      </trkpt>
      <trkpt lat="65.25301" lon="12.125">
        <ele>50.126768</ele>
        <time>2020-08-13T07:10:48.847Z</time>
      </trkpt>
      <trkpt lat="65.25509" lon="12.12725">
        <ele>50.264333</ele>
        <time>2020-08-13T07:11:39.809Z</time>
      </trkpt>
      <trkpt lat="65.25573" lon="12.13189">
        <ele>52.023533</ele>
        <time>2020-08-13T07:12:45.800Z</time>
      </trkpt>
      <trkpt lat="65.25641" lon="12.13681">
        <ele>51.128504</ele>
        <time>2020-08-13T07:13:38.802Z</time>
      </trkpt>
      <trkpt lat="65.25869" lon="12.13939">
        <ele>47.63397</ele>
        <time>2020-08-13T07:14:18.831Z</time>
      </trkpt>
      <trkpt lat="65.26046" lon="12.14154">
        <ele>47.11443</ele>
        <time>2020-08-13T07:14:59.808Z</time>
      </trkpt>
      <trkpt lat="65.26247" lon="12.1442">
        <ele>51.388201</ele>
        <time>2020-08-13T07:15:58.814Z</time>
      </trkpt>
      <trkpt lat="65.26445" lon="12.14525">
        <ele>56.89507</ele>
        <time>2020-08-13T07:17:08.801Z</time>
      </trkpt>
      <trkpt lat="65.2666" lon="12.14554">
        <ele>62.442081</ele>
        <time>2020-08-13T07:18:27.811Z</time>
      </trkpt>
      <trkpt lat="65.26876" lon="12.14576">
        <ele>65.891454</ele>
        <time>2020-08-13T07:19:42.814Z</time>
      </trkpt>
      <trkpt lat="65.2709" lon="12.14542">
        <ele>64.736826</ele>
        <time>2020-08-13T07:20:38.817Z</time>
      </trkpt>
      <trkpt lat="65.27318" lon="12.14544">
        <ele>61.716424</ele>
        <time>2020-08-13T07:21:07.868Z</time>
      </trkpt>
      <trkpt lat="65.27564" lon="12.14674">
        <ele>55.18233</ele>
        <time>2020-08-13T07:21:59.817Z</time>
      </trkpt>
      <trkpt lat="65.27793" lon="12.14796">
        <ele>51.653602</ele>
        <time>2020-08-13T07:22:42.835Z</time>
      </trkpt>
      <trkpt lat="65.28024" lon="12.14894">
        <ele>51.536819</ele>
        <time>2020-08-13T07:23:22.835Z</time>
      </trkpt>
      <trkpt lat="65.28232" lon="12.15001">
        <ele>56.882844</ele>
        <time>2020-08-13T07:24:22.821Z</time>
      </trkpt>
      <trkpt lat="65.28437" lon="12.15147">
        <ele>58.372424</ele>
        <time>2020-08-13T07:25:22.828Z</time>
      </trkpt>
      <trkpt lat="65.28649" lon="12.15301">
        <ele>55.704299</ele>
        <time>2020-08-13T07:26:05.823Z</time>
      </trkpt>
      <trkpt lat="65.28844" lon="12.15445">
        <ele>54.765356</ele>
        <time>2020-08-13T07:26:45.847Z</time>
      </trkpt>
      <trkpt lat="65.29045" lon="12.15594">
        <ele>55.197317</ele>
        <time>2020-08-13T07:27:31.855Z</time>
      </trkpt>
      <trkpt lat="65.29268" lon="12.15758">
        <ele>57.358003</ele>
        <time>2020-08-13T07:28:31.810Z</time>
      </trkpt>
      <trkpt lat="65.29471" lon="12.15908">
        <ele>62.100801</ele>
        <time>2020-08-13T07:29:36.808Z</time>
      </trkpt>
      <trkpt lat="65.29676" lon="12.16058">
        <ele>65.633749</ele>
        <time>2020-08-13T07:30:39.861Z</time>
      </trkpt>
      <trkpt lat="65.29912" lon="12.16207">
        <ele>58.579329</ele>
        <time>2020-08-13T07:31:21.807Z</time>
      </trkpt>
      <trkpt lat="65.30113" lon="12.16333">
        <ele>60.487794</ele>
        <time>2020-08-13T07:32:15.810Z</time>
      </trkpt>
      <trkpt lat="65.30326" lon="12.16466">
        <ele>61.164565</ele>
        <time>2020-08-13T07:33:03.821Z</time>
      </trkpt>
      <trkpt lat="65.30559" lon="12.16619">
        <ele>60.520642</ele>
        <time>2020-08-13T07:34:03.843Z</time>
      </trkpt>
      <trkpt lat="65.3076" lon="12.16721">
        <ele>58.005418</ele>
        <time>2020-08-13T07:34:44.830Z</time>
      </trkpt>
      <trkpt lat="65.30967" lon="12.16739">
        <ele>58.409846</ele>
        <time>2020-08-13T07:35:24.833Z</time>
      </trkpt>
      <trkpt lat="65.3119" lon="12.16746">
        <ele>62.570545</ele>
        <time>2020-08-13T07:36:11.830Z</time>
      </trkpt>
      <trkpt lat="65.31433" lon="12.16799">
        <ele>64.100485</ele>
        <time>2020-08-13T07:37:10.837Z</time>
      </trkpt>
      <trkpt lat="65.31651" lon="12.1692">
        <ele>59.20897</ele>
        <time>2020-08-13T07:38:01.815Z</time>
      </trkpt>
      <trkpt lat="65.31895" lon="12.17084">
        <ele>57.383923</ele>
        <time>2020-08-13T07:39:01.859Z</time>
      </trkpt>
      <trkpt lat="65.32125" lon="12.17234">
        <ele>57.887567</ele>
        <time>2020-08-13T07:39:59.845Z</time>
      </trkpt>
      <trkpt lat="65.32352" lon="12.17411">
        <ele>58.851137</ele>
        <time>2020-08-13T07:40:59.826Z</time>
      </trkpt>
      <trkpt lat="65.32579" lon="12.17601">
        <ele>61.289623</ele>
        <time>2020-08-13T07:41:58.817Z</time>
      </trkpt>
      <trkpt lat="65.32812" lon="12.17809">
        <ele>57.673008</ele>
        <time>2020-08-13T07:42:58.835Z</time>
      </trkpt>
      <trkpt lat="65.32989" lon="12.18075">
        <ele>56.173052</ele>
        <time>2020-08-13T07:43:48.810Z</time>
      </trkpt>
      <trkpt lat="65.33161" lon="12.18367">
        <ele>56.959168</ele>
        <time>2020-08-13T07:44:28.828Z</time>
      </trkpt>
      <trkpt lat="65.33361" lon="12.18714">
        <ele>58.78286</ele>
        <time>2020-08-13T07:45:26.824Z</time>
      </trkpt>
      <trkpt lat="65.33557" lon="12.19032">
        <ele>57.848824</ele>
        <time>2020-08-13T07:46:22.845Z</time>
      </trkpt>
      <trkpt lat="65.33779" lon="12.19274">
        <ele>51.811983</ele>
        <time>2020-08-13T07:47:08.821Z</time>
      </trkpt>
      <trkpt lat="65.34007" lon="12.19581">
        <ele>45.548738</ele>
        <time>2020-08-13T07:47:48.832Z</time>
      </trkpt>
      <trkpt lat="65.34129" lon="12.1937">
        <ele>45.381743</ele>
        <time>2020-08-13T07:48:28.819Z</time>
      </trkpt>
      <trkpt lat="65.34291" lon="12.19172">
        <ele>46.811707</ele>
        <time>2020-08-13T07:49:13.844Z</time>
      </trkpt>
      <trkpt lat="65.34499" lon="12.19122">
        <ele>51.117772</ele>
        <time>2020-08-13T07:50:06.842Z</time>
      </trkpt>
      <trkpt lat="65.34699" lon="12.19025">
        <ele>55.045491</ele>
        <time>2020-08-13T07:51:18.814Z</time>
      </trkpt>
      <trkpt lat="65.34874" lon="12.18792">
        <ele>67.660341</ele>
        <time>2020-08-13T07:52:55.817Z</time>
      </trkpt>
      <trkpt lat="65.35037" lon="12.18468">
        <ele>64.658953</ele>
        <time>2020-08-13T07:54:14.854Z</time>
      </trkpt>
      <trkpt lat="65.35159" lon="12.18067">
        <ele>74.809127</ele>
        <time>2020-08-13T07:55:33.844Z</time>
      </trkpt>
      <trkpt lat="65.35279" lon="12.17672">
        <ele>84.269755</ele>
        <time>2020-08-13T07:56:58.892Z</time>
      </trkpt>
      <trkpt lat="65.35465" lon="12.17453">
        <ele>86.057058</ele>
        <time>2020-08-13T07:58:23.828Z</time>
      </trkpt>
      <trkpt lat="65.35687" lon="12.17322">
        <ele>90.557004</ele>
        <time>2020-08-13T07:59:23.833Z</time>
      </trkpt>
      <trkpt lat="65.35929" lon="12.17401">
        <ele>82.971557</ele>
        <time>2020-08-13T08:00:12.822Z</time>
      </trkpt>
      <trkpt lat="65.36206" lon="12.17505">
        <ele>68.788254</ele>
        <time>2020-08-13T08:00:51.872Z</time>
      </trkpt>
      <trkpt lat="65.36366" lon="12.17144">
        <ele>50.161864</ele>
        <time>2020-08-13T08:01:16.827Z</time>
      </trkpt>
      <trkpt lat="65.36497" lon="12.17648">
        <ele>42.765944</ele>
        <time>2020-08-13T08:02:00.826Z</time>
      </trkpt>
      <trkpt lat="65.36611" lon="12.18144">
        <ele>47.88575</ele>
        <time>2020-08-13T08:03:00.825Z</time>
      </trkpt>
      <trkpt lat="65.36732" lon="12.18595">
        <ele>47.473756</ele>
        <time>2020-08-13T08:03:54.822Z</time>
      </trkpt>
      <trkpt lat="65.3676" lon="12.1913">
        <ele>50.703653</ele>
        <time>2020-08-13T08:04:59.826Z</time>
      </trkpt>
      <trkpt lat="65.36712" lon="12.19645">
        <ele>46.061096</ele>
        <time>2020-08-13T08:05:56.825Z</time>
      </trkpt>
      <trkpt lat="65.3688" lon="12.19711">
        <ele>52.091701</ele>
        <time>2020-08-13T08:08:01.829Z</time>
      </trkpt>
      <trkpt lat="65.37073" lon="12.19897">
        <ele>51.021448</ele>
        <time>2020-08-13T08:08:56.822Z</time>
      </trkpt>
      <trkpt lat="65.37288" lon="12.20119">
        <ele>47.382594</ele>
        <time>2020-08-13T08:09:47.829Z</time>
      </trkpt>
      <trkpt lat="65.37474" lon="12.20316">
        <ele>47.24229</ele>
        <time>2020-08-13T08:10:31.852Z</time>
      </trkpt>
      <trkpt lat="65.37702" lon="12.20371">
        <ele>48.170794</ele>
        <time>2020-08-13T08:11:26.846Z</time>
      </trkpt>
      <trkpt lat="65.37879" lon="12.20101">
        <ele>45.84537</ele>
        <time>2020-08-13T08:12:21.834Z</time>
      </trkpt>
      <trkpt lat="65.37991" lon="12.19723">
        <ele>47.195319</ele>
        <time>2020-08-13T08:13:23.823Z</time>
      </trkpt>
      <trkpt lat="65.38107" lon="12.19333">
        <ele>48.198338</ele>
        <time>2020-08-13T08:14:24.828Z</time>
      </trkpt>
      <trkpt lat="65.38242" lon="12.18874">
        <ele>49.346425</ele>
        <time>2020-08-13T08:15:23.840Z</time>
      </trkpt>
      <trkpt lat="65.38386" lon="12.18457">
        <ele>56.517063</ele>
        <time>2020-08-13T08:16:25.847Z</time>
      </trkpt>
      <trkpt lat="65.38559" lon="12.18167">
        <ele>63.588245</ele>
        <time>2020-08-13T08:17:41.828Z</time>
      </trkpt>
      <trkpt lat="65.38759" lon="12.17896">
        <ele>58.6653</ele>
        <time>2020-08-13T08:18:21.874Z</time>
      </trkpt>
      <trkpt lat="65.3899" lon="12.17621">
        <ele>55.218265</ele>
        <time>2020-08-13T08:19:01.821Z</time>
      </trkpt>
      <trkpt lat="65.3921" lon="12.17593">
        <ele>53.65205</ele>
        <time>2020-08-13T08:19:41.821Z</time>
      </trkpt>
      <trkpt lat="65.39406" lon="12.17734">
        <ele>50.128987</ele>
        <time>2020-08-13T08:20:21.843Z</time>
      </trkpt>
      <trkpt lat="65.39601" lon="12.17874">
        <ele>51.177608</ele>
        <time>2020-08-13T08:21:05.849Z</time>
      </trkpt>
      <trkpt lat="65.39793" lon="12.18017">
        <ele>51.948088</ele>
        <time>2020-08-13T08:21:48.834Z</time>
      </trkpt>
      <trkpt lat="65.40009" lon="12.18177">
        <ele>50.39776</ele>
        <time>2020-08-13T08:22:40.846Z</time>
      </trkpt>
      <trkpt lat="65.40203" lon="12.18343">
        <ele>46.614517</ele>
        <time>2020-08-13T08:23:25.827Z</time>
      </trkpt>
      <trkpt lat="65.40407" lon="12.18518">
        <ele>46.896153</ele>
        <time>2020-08-13T08:24:11.829Z</time>
      </trkpt>
      <trkpt lat="65.40642" lon="12.18667">
        <ele>47.210613</ele>
        <time>2020-08-13T08:25:10.829Z</time>
      </trkpt>
      <trkpt lat="65.40832" lon="12.18948">
        <ele>48.499834</ele>
        <time>2020-08-13T08:26:10.842Z</time>
      </trkpt>
      <trkpt lat="65.40998" lon="12.19246">
        <ele>51.304387</ele>
        <time>2020-08-13T08:27:10.836Z</time>
      </trkpt>
      <trkpt lat="65.41119" lon="12.19708">
        <ele>44.40496</ele>
        <time>2020-08-13T08:28:10.870Z</time>
      </trkpt>
      <trkpt lat="65.41252" lon="12.20172">
        <ele>44.308571</ele>
        <time>2020-08-13T08:29:10.830Z</time>
      </trkpt>
      <trkpt lat="65.41377" lon="12.20599">
        <ele>47.424893</ele>
        <time>2020-08-13T08:30:21.829Z</time>
      </trkpt>
      <trkpt lat="65.41532" lon="12.20937">
        <ele>52.557399</ele>
        <time>2020-08-13T08:31:35.836Z</time>
      </trkpt>
      <trkpt lat="65.41708" lon="12.21176">
        <ele>56.562677</ele>
        <time>2020-08-13T08:32:39.826Z</time>
      </trkpt>
      <trkpt lat="65.41868" lon="12.21465">
        <ele>58.510595</ele>
        <time>2020-08-13T08:33:44.826Z</time>
      </trkpt>
      <trkpt lat="65.4204" lon="12.21747">
        <ele>62.068399</ele>
        <time>2020-08-13T08:34:53.838Z</time>
      </trkpt>
      <trkpt lat="65.42203" lon="12.2206">
        <ele>56.504235</ele>
        <time>2020-08-13T08:35:34.854Z</time>
      </trkpt>
      <trkpt lat="65.42352" lon="12.22355">
        <ele>52.04388</ele>
        <time>2020-08-13T08:36:14.852Z</time>
      </trkpt>
      <trkpt lat="65.42532" lon="12.22725">
        <ele>46.820802</ele>
        <time>2020-08-13T08:36:59.848Z</time>
      </trkpt>
      <trkpt lat="65.42687" lon="12.23051">
        <ele>49.767295</ele>
        <time>2020-08-13T08:37:47.825Z</time>
      </trkpt>
      <trkpt lat="65.42818" lon="12.23443">
        <ele>46.442936</ele>
        <time>2020-08-13T08:38:34.834Z</time>
      </trkpt>
      <trkpt lat="65.42924" lon="12.23895">
        <ele>50.267795</ele>
        <time>2020-08-13T08:39:26.843Z</time>
      </trkpt>
      <trkpt lat="65.43011" lon="12.24313">
        <ele>58.48151</ele>
        <time>2020-08-13T08:40:42.843Z</time>
      </trkpt>
      <trkpt lat="65.43124" lon="12.24742">
        <ele>54.881</ele>
        <time>2020-08-13T08:42:01.858Z</time>
      </trkpt>
      <trkpt lat="65.432" lon="12.25238">
        <ele>50.253033</ele>
        <time>2020-08-13T08:42:52.844Z</time>
      </trkpt>
      <trkpt lat="65.43279" lon="12.25696">
        <ele>49.190622</ele>
        <time>2020-08-13T08:43:39.824Z</time>
      </trkpt>
      <trkpt lat="65.43369" lon="12.26168">
        <ele>52.480816</ele>
        <time>2020-08-13T08:44:53.831Z</time>
      </trkpt>
      <trkpt lat="65.43448" lon="12.26643">
        <ele>59.019689</ele>
        <time>2020-08-13T08:46:07.827Z</time>
      </trkpt>
      <trkpt lat="65.43554" lon="12.27129">
        <ele>58.721131</ele>
        <time>2020-08-13T08:46:54.846Z</time>
      </trkpt>
      <trkpt lat="65.43648" lon="12.27603">
        <ele>50.797552</ele>
        <time>2020-08-13T08:47:34.834Z</time>
      </trkpt>
      <trkpt lat="65.43709" lon="12.28082">
        <ele>51.54353</ele>
        <time>2020-08-13T08:48:34.867Z</time>
      </trkpt>
      <trkpt lat="65.438" lon="12.28539">
        <ele>58.288077</ele>
        <time>2020-08-13T08:49:54.856Z</time>
      </trkpt>
      <trkpt lat="65.43916" lon="12.28962">
        <ele>68.085792</ele>
        <time>2020-08-13T08:51:13.842Z</time>
      </trkpt>
      <trkpt lat="65.44027" lon="12.29364">
        <ele>63.966043</ele>
        <time>2020-08-13T08:52:00.841Z</time>
      </trkpt>
      <trkpt lat="65.44164" lon="12.2985">
        <ele>55.486445</ele>
        <time>2020-08-13T08:52:40.858Z</time>
      </trkpt>
      <trkpt lat="65.44272" lon="12.30277">
        <ele>56.997477</ele>
        <time>2020-08-13T08:53:23.844Z</time>
      </trkpt>
      <trkpt lat="65.44409" lon="12.30651">
        <ele>61.337277</ele>
        <time>2020-08-13T08:54:37.851Z</time>
      </trkpt>
      <trkpt lat="65.44562" lon="12.31">
        <ele>63.176096</ele>
        <time>2020-08-13T08:55:48.842Z</time>
      </trkpt>
      <trkpt lat="65.44725" lon="12.31407">
        <ele>64.542952</ele>
        <time>2020-08-13T08:56:48.842Z</time>
      </trkpt>
      <trkpt lat="65.4484" lon="12.31857">
        <ele>64.068989</ele>
        <time>2020-08-13T08:57:53.857Z</time>
      </trkpt>
      <trkpt lat="65.44988" lon="12.32223">
        <ele>65.806397</ele>
        <time>2020-08-13T08:58:59.835Z</time>
      </trkpt>
      <trkpt lat="65.45152" lon="12.32594">
        <ele>64.945293</ele>
        <time>2020-08-13T08:59:55.858Z</time>
      </trkpt>
      <trkpt lat="65.45333" lon="12.32899">
        <ele>61.588302</ele>
        <time>2020-08-13T09:00:35.843Z</time>
      </trkpt>
      <trkpt lat="65.45529" lon="12.33312">
        <ele>56.8526</ele>
        <time>2020-08-13T09:01:15.855Z</time>
      </trkpt>
      <trkpt lat="65.45737" lon="12.33795">
        <ele>50.503983</ele>
        <time>2020-08-13T09:01:55.831Z</time>
      </trkpt>
      <trkpt lat="65.45929" lon="12.3424">
        <ele>43.724728</ele>
        <time>2020-08-13T09:02:35.846Z</time>
      </trkpt>
      <trkpt lat="65.46119" lon="12.34564">
        <ele>42.213624</ele>
        <time>2020-08-13T09:03:19.849Z</time>
      </trkpt>
      <trkpt lat="65.46327" lon="12.34833">
        <ele>43.679063</ele>
        <time>2020-08-13T09:18:37.904Z</time>
      </trkpt>
      <trkpt lat="65.46513" lon="12.35158">
        <ele>45.309434</ele>
        <time>2020-08-13T09:19:37.849Z</time>
      </trkpt>
      <trkpt lat="65.46694" lon="12.35452">
        <ele>44.29416</ele>
        <time>2020-08-13T09:20:37.846Z</time>
      </trkpt>
      <trkpt lat="65.46913" lon="12.35457">
        <ele>39.125806</ele>
        <time>2020-08-13T09:21:25.860Z</time>
      </trkpt>
      <trkpt lat="65.4712" lon="12.35333">
        <ele>40.301461</ele>
        <time>2020-08-13T09:22:12.841Z</time>
      </trkpt>
      <trkpt lat="65.47321" lon="12.35216">
        <ele>46.218693</ele>
        <time>2020-08-13T09:23:26.852Z</time>
      </trkpt>
      <trkpt lat="65.47496" lon="12.34996">
        <ele>52.625592</ele>
        <time>2020-08-13T09:24:46.838Z</time>
      </trkpt>
      <trkpt lat="65.4761" lon="12.34604">
        <ele>56.605441</ele>
        <time>2020-08-13T09:25:53.831Z</time>
      </trkpt>
      <trkpt lat="65.47662" lon="12.34135">
        <ele>62.055937</ele>
        <time>2020-08-13T09:27:01.836Z</time>
      </trkpt>
      <trkpt lat="65.47799" lon="12.3376">
        <ele>55.79483</ele>
        <time>2020-08-13T09:27:41.873Z</time>
      </trkpt>
      <trkpt lat="65.48075" lon="12.33866">
        <ele>48.841659</ele>
        <time>2020-08-13T09:28:21.864Z</time>
      </trkpt>
      <trkpt lat="65.48292" lon="12.34024">
        <ele>49.778285</ele>
        <time>2020-08-13T09:29:10.854Z</time>
      </trkpt>
      <trkpt lat="65.48496" lon="12.34202">
        <ele>51.044535</ele>
        <time>2020-08-13T09:32:25.838Z</time>
      </trkpt>
      <trkpt lat="65.48721" lon="12.34241">
        <ele>48.056722</ele>
        <time>2020-08-13T09:33:12.843Z</time>
      </trkpt>
      <trkpt lat="65.48958" lon="12.3443">
        <ele>41.877466</ele>
        <time>2020-08-13T09:33:52.848Z</time>
      </trkpt>
      <trkpt lat="65.49162" lon="12.34487">
        <ele>44.282596</ele>
        <time>2020-08-13T09:34:51.830Z</time>
      </trkpt>
      <trkpt lat="65.49369" lon="12.34656">
        <ele>43.783139</ele>
        <time>2020-08-13T09:35:40.851Z</time>
      </trkpt>
      <trkpt lat="65.49573" lon="12.34742">
        <ele>44.355549</ele>
        <time>2020-08-13T09:36:37.861Z</time>
      </trkpt>
      <trkpt lat="65.49755" lon="12.34727">
        <ele>53.121426</ele>
        <time>2020-08-13T09:38:09.851Z</time>
      </trkpt>
      <trkpt lat="65.49762" lon="12.34294">
        <ele>63.358269</ele>
        <time>2020-08-13T09:39:34.859Z</time>
      </trkpt>
      <trkpt lat="65.49872" lon="12.33778">
        <ele>56.492774</ele>
        <time>2020-08-13T09:40:18.855Z</time>
      </trkpt>
      <trkpt lat="65.49987" lon="12.33376">
        <ele>53.899596</ele>
        <time>2020-08-13T09:40:58.861Z</time>
      </trkpt>
      <trkpt lat="65.50118" lon="12.33003">
        <ele>57.956443</ele>
        <time>2020-08-13T09:41:46.887Z</time>
      </trkpt>
      <trkpt lat="65.50187" lon="12.32504">
        <ele>58.761884</ele>
        <time>2020-08-13T09:42:42.860Z</time>
      </trkpt>
      <trkpt lat="65.50313" lon="12.32012">
        <ele>53.435852</ele>
        <time>2020-08-13T09:43:25.839Z</time>
      </trkpt>
      <trkpt lat="65.5043" lon="12.31613">
        <ele>53.416524</ele>
        <time>2020-08-13T09:44:10.849Z</time>
      </trkpt>
      <trkpt lat="65.50544" lon="12.31195">
        <ele>53.763375</ele>
        <time>2020-08-13T09:44:53.846Z</time>
      </trkpt>
      <trkpt lat="65.50548" lon="12.30583">
        <ele>48.827514</ele>
        <time>2020-08-13T09:45:33.838Z</time>
      </trkpt>
      <trkpt lat="65.50476" lon="12.29975">
        <ele>44.067193</ele>
        <time>2020-08-13T09:46:18.848Z</time>
      </trkpt>
      <trkpt lat="65.50361" lon="12.29566">
        <ele>42.735721</ele>
        <time>2020-08-13T09:46:59.865Z</time>
      </trkpt>
      <trkpt lat="65.50194" lon="12.29181">
        <ele>46.701656</ele>
        <time>2020-08-13T09:47:57.854Z</time>
      </trkpt>
      <trkpt lat="65.5002" lon="12.28899">
        <ele>52.061467</ele>
        <time>2020-08-13T09:48:52.865Z</time>
      </trkpt>
      <trkpt lat="65.49829" lon="12.28541">
        <ele>52.755666</ele>
        <time>2020-08-13T09:49:38.858Z</time>
      </trkpt>
      <trkpt lat="65.49653" lon="12.28184">
        <ele>53.557389</ele>
        <time>2020-08-13T09:50:35.840Z</time>
      </trkpt>
      <trkpt lat="65.49501" lon="12.27756">
        <ele>51.365952</ele>
        <time>2020-08-13T09:51:15.848Z</time>
      </trkpt>
      <trkpt lat="65.49369" lon="12.27233">
        <ele>49.244377</ele>
        <time>2020-08-13T09:51:55.838Z</time>
      </trkpt>
      <trkpt lat="65.49279" lon="12.2679">
        <ele>53.507573</ele>
        <time>2020-08-13T09:52:55.869Z</time>
      </trkpt>
      <trkpt lat="65.4928" lon="12.26271">
        <ele>57.144494</ele>
        <time>2020-08-13T09:53:43.843Z</time>
      </trkpt>
      <trkpt lat="65.49524" lon="12.26084">
        <ele>50.662798</ele>
        <time>2020-08-13T09:54:23.856Z</time>
      </trkpt>
      <trkpt lat="65.49516" lon="12.25539">
        <ele>45.921388</ele>
        <time>2020-08-13T09:55:05.846Z</time>
      </trkpt>
      <trkpt lat="65.49563" lon="12.25022">
        <ele>47.549482</ele>
        <time>2020-08-13T09:55:59.839Z</time>
      </trkpt>
      <trkpt lat="65.49659" lon="12.24946">
        <ele>48.345762</ele>
        <time>2020-08-13T09:56:53.844Z</time>
      </trkpt>
      <trkpt lat="65.4983" lon="12.25304">
        <ele>48.642911</ele>
        <time>2020-08-13T09:57:48.845Z</time>
      </trkpt>
      <trkpt lat="65.50007" lon="12.25604">
        <ele>50.226709</ele>
        <time>2020-08-13T09:58:48.848Z</time>
      </trkpt>
      <trkpt lat="65.5022" lon="12.25871">
        <ele>50.583331</ele>
        <time>2020-08-13T09:59:48.874Z</time>
      </trkpt>
      <trkpt lat="65.50421" lon="12.2616">
        <ele>50.372758</ele>
        <time>2020-08-13T10:00:48.836Z</time>
      </trkpt>
      <trkpt lat="65.50624" lon="12.26475">
        <ele>50.616137</ele>
        <time>2020-08-13T10:01:48.844Z</time>
      </trkpt>
      <trkpt lat="65.50852" lon="12.26674">
        <ele>51.303774</ele>
        <time>2020-08-13T10:02:46.854Z</time>
      </trkpt>
      <trkpt lat="65.51059" lon="12.26959">
        <ele>51.033679</ele>
        <time>2020-08-13T10:03:40.855Z</time>
      </trkpt>
      <trkpt lat="65.51256" lon="12.27127">
        <ele>49.70915</ele>
        <time>2020-08-13T10:04:21.852Z</time>
      </trkpt>
      <trkpt lat="65.5148" lon="12.27109">
        <ele>50.069272</ele>
        <time>2020-08-13T10:05:21.856Z</time>
      </trkpt>
      <trkpt lat="65.51677" lon="12.27156">
        <ele>51.042741</ele>
        <time>2020-08-13T10:06:03.871Z</time>
      </trkpt>
      <trkpt lat="65.51884" lon="12.27359">
        <ele>54.106975</ele>
        <time>2020-08-13T10:07:03.867Z</time>
      </trkpt>
      <trkpt lat="65.52085" lon="12.27484">
        <ele>52.451677</ele>
        <time>2020-08-13T10:08:03.889Z</time>
      </trkpt>
      <trkpt lat="65.52286" lon="12.27385">
        <ele>49.710995</ele>
        <time>2020-08-13T10:08:43.867Z</time>
      </trkpt>
      <trkpt lat="65.5246" lon="12.27116">
        <ele>49.369954</ele>
        <time>2020-08-13T10:09:25.854Z</time>
      </trkpt>
      <trkpt lat="65.52647" lon="12.26896">
        <ele>51.048423</ele>
        <time>2020-08-13T10:10:10.886Z</time>
      </trkpt>
      <trkpt lat="65.52853" lon="12.26857">
        <ele>49.189443</ele>
        <time>2020-08-13T10:10:51.870Z</time>
      </trkpt>
      <trkpt lat="65.53082" lon="12.26827">
        <ele>45.526189</ele>
        <time>2020-08-13T10:11:31.848Z</time>
      </trkpt>
      <trkpt lat="65.53304" lon="12.26836">
        <ele>49.275034</ele>
        <time>2020-08-13T10:12:11.867Z</time>
      </trkpt>
      <trkpt lat="65.53532" lon="12.26888">
        <ele>52.072117</ele>
        <time>2020-08-13T10:13:03.856Z</time>
      </trkpt>
      <trkpt lat="65.53777" lon="12.26945">
        <ele>52.551363</ele>
        <time>2020-08-13T10:14:00.850Z</time>
      </trkpt>
      <trkpt lat="65.53995" lon="12.27024">
        <ele>48.393299</ele>
        <time>2020-08-13T10:14:41.839Z</time>
      </trkpt>
      <trkpt lat="65.54211" lon="12.27094">
        <ele>50.524136</ele>
        <time>2020-08-13T10:15:40.861Z</time>
      </trkpt>
      <trkpt lat="65.54412" lon="12.27171">
        <ele>52.944285</ele>
        <time>2020-08-13T10:16:40.842Z</time>
      </trkpt>
      <trkpt lat="65.54625" lon="12.2729">
        <ele>55.963496</ele>
        <time>2020-08-13T10:17:31.844Z</time>
      </trkpt>
      <trkpt lat="65.5484" lon="12.27424">
        <ele>52.610052</ele>
        <time>2020-08-13T10:18:11.859Z</time>
      </trkpt>
      <trkpt lat="65.55009" lon="12.27698">
        <ele>49.258104</ele>
        <time>2020-08-13T10:18:52.849Z</time>
      </trkpt>
      <trkpt lat="65.5516" lon="12.2807">
        <ele>54.491073</ele>
        <time>2020-08-13T10:19:52.870Z</time>
      </trkpt>
      <trkpt lat="65.55274" lon="12.28498">
        <ele>59.970001</ele>
        <time>2020-08-13T10:21:11.837Z</time>
      </trkpt>
      <trkpt lat="65.55359" lon="12.28963">
        <ele>56.396014</ele>
        <time>2020-08-13T10:22:06.853Z</time>
      </trkpt>
      <trkpt lat="65.55514" lon="12.29374">
        <ele>53.228887</ele>
        <time>2020-08-13T10:22:46.857Z</time>
      </trkpt>
      <trkpt lat="65.55698" lon="12.29686">
        <ele>53.495908</ele>
        <time>2020-08-13T10:23:32.870Z</time>
      </trkpt>
      <trkpt lat="65.55919" lon="12.29937">
        <ele>56.229045</ele>
        <time>2020-08-13T10:24:31.887Z</time>
      </trkpt>
      <trkpt lat="65.56115" lon="12.30203">
        <ele>55.904708</ele>
        <time>2020-08-13T10:25:32.903Z</time>
      </trkpt>
      <trkpt lat="65.56288" lon="12.30563">
        <ele>49.088382</ele>
        <time>2020-08-13T10:26:00.862Z</time>
      </trkpt>
      <trkpt lat="65.56504" lon="12.30611">
        <ele>53.55821</ele>
        <time>2020-08-13T10:26:53.849Z</time>
      </trkpt>
      <trkpt lat="65.56691" lon="12.30437">
        <ele>64.544403</ele>
        <time>2020-08-13T10:32:34.850Z</time>
      </trkpt>
      <trkpt lat="65.56885" lon="12.30605">
        <ele>68.3628</ele>
        <time>2020-08-13T10:33:50.858Z</time>
      </trkpt>
      <trkpt lat="65.57076" lon="12.30716">
        <ele>68.807468</ele>
        <time>2020-08-13T10:34:53.857Z</time>
      </trkpt>
      <trkpt lat="65.57305" lon="12.30526">
        <ele>61.709944</ele>
        <time>2020-08-13T10:35:21.878Z</time>
      </trkpt>
      <trkpt lat="65.57554" lon="12.30321">
        <ele>55.113615</ele>
        <time>2020-08-13T10:35:55.849Z</time>
      </trkpt>
      <trkpt lat="65.57781" lon="12.30127">
        <ele>53.97485</ele>
        <time>2020-08-13T10:36:35.861Z</time>
      </trkpt>
      <trkpt lat="65.58013" lon="12.30053">
        <ele>50.255094</ele>
        <time>2020-08-13T10:37:15.865Z</time>
      </trkpt>
      <trkpt lat="65.58216" lon="12.30138">
        <ele>44.5272</ele>
        <time>2020-08-13T10:38:04.843Z</time>
      </trkpt>
      <trkpt lat="65.57799" lon="12.39321">
        <ele>51.755229</ele>
        <time>2020-08-13T11:27:43.895Z</time>
      </trkpt>
      <trkpt lat="65.57852" lon="12.38776">
        <ele>53.447332</ele>
        <time>2020-08-13T11:32:53.897Z</time>
      </trkpt>
      <trkpt lat="65.57956" lon="12.38332">
        <ele>51.228861</ele>
        <time>2020-08-13T11:33:46.881Z</time>
      </trkpt>
      <trkpt lat="65.58142" lon="12.38182">
        <ele>52.121174</ele>
        <time>2020-08-13T11:34:37.907Z</time>
      </trkpt>
      <trkpt lat="65.58191" lon="12.37619">
        <ele>52.070116</ele>
        <time>2020-08-13T11:35:34.882Z</time>
      </trkpt>
      <trkpt lat="65.58436" lon="12.37513">
        <ele>42.667129</ele>
        <time>2020-08-13T11:36:14.922Z</time>
      </trkpt>
      <trkpt lat="65.58633" lon="12.37249">
        <ele>47.773102</ele>
        <time>2020-08-13T11:37:06.890Z</time>
      </trkpt>
      <trkpt lat="65.58832" lon="12.37386">
        <ele>50.306734</ele>
        <time>2020-08-13T11:38:07.892Z</time>
      </trkpt>
      <trkpt lat="65.59041" lon="12.37219">
        <ele>49.480538</ele>
        <time>2020-08-13T11:38:52.885Z</time>
      </trkpt>
      <trkpt lat="65.59277" lon="12.37129">
        <ele>46.979939</ele>
        <time>2020-08-13T11:39:33.945Z</time>
      </trkpt>
      <trkpt lat="65.59481" lon="12.37007">
        <ele>51.1822</ele>
        <time>2020-08-13T11:40:32.911Z</time>
      </trkpt>
      <trkpt lat="65.59685" lon="12.37001">
        <ele>54.709818</ele>
        <time>2020-08-13T11:41:31.902Z</time>
      </trkpt>
      <trkpt lat="65.59896" lon="12.37087">
        <ele>49.233452</ele>
        <time>2020-08-13T11:42:01.917Z</time>
      </trkpt>
      <trkpt lat="65.60088" lon="12.36855">
        <ele>51.783527</ele>
        <time>2020-08-13T11:42:52.968Z</time>
      </trkpt>
      <trkpt lat="65.60311" lon="12.36717">
        <ele>50.588481</ele>
        <time>2020-08-13T11:43:41.915Z</time>
      </trkpt>
      <trkpt lat="65.6057" lon="12.36575">
        <ele>45.267188</ele>
        <time>2020-08-13T11:44:24.885Z</time>
      </trkpt>
      <trkpt lat="65.60787" lon="12.36565">
        <ele>42.998012</ele>
        <time>2020-08-13T11:45:07.897Z</time>
      </trkpt>
      <trkpt lat="65.60999" lon="12.36582">
        <ele>46.277236</ele>
        <time>2020-08-13T11:45:51.884Z</time>
      </trkpt>
      <trkpt lat="65.61232" lon="12.36686">
        <ele>46.993164</ele>
        <time>2020-08-13T11:46:45.911Z</time>
      </trkpt>
      <trkpt lat="65.61444" lon="12.36779">
        <ele>49.530142</ele>
        <time>2020-08-13T11:47:33.904Z</time>
      </trkpt>
      <trkpt lat="65.61661" lon="12.36876">
        <ele>55.957869</ele>
        <time>2020-08-13T11:48:35.939Z</time>
      </trkpt>
      <trkpt lat="65.61865" lon="12.36945">
        <ele>56.323702</ele>
        <time>2020-08-13T11:49:40.914Z</time>
      </trkpt>
      <trkpt lat="65.62108" lon="12.36791">
        <ele>50.02755</ele>
        <time>2020-08-13T11:50:25.898Z</time>
      </trkpt>
      <trkpt lat="65.62364" lon="12.36758">
        <ele>45.394917</ele>
        <time>2020-08-13T11:51:03.887Z</time>
      </trkpt>
      <trkpt lat="65.62588" lon="12.36828">
        <ele>48.702899</ele>
        <time>2020-08-13T11:51:56.881Z</time>
      </trkpt>
      <trkpt lat="65.62814" lon="12.36891">
        <ele>51.514671</ele>
        <time>2020-08-13T11:52:49.912Z</time>
      </trkpt>
      <trkpt lat="65.63047" lon="12.37015">
        <ele>53.834106</ele>
        <time>2020-08-13T11:53:49.901Z</time>
      </trkpt>
      <trkpt lat="65.63281" lon="12.37156">
        <ele>55.030679</ele>
        <time>2020-08-13T11:54:49.935Z</time>
      </trkpt>
      <trkpt lat="65.63509" lon="12.37302">
        <ele>56.645379</ele>
        <time>2020-08-13T11:55:44.932Z</time>
      </trkpt>
      <trkpt lat="65.63709" lon="12.37424">
        <ele>55.925437</ele>
        <time>2020-08-13T11:56:25.894Z</time>
      </trkpt>
      <trkpt lat="65.6392" lon="12.37583">
        <ele>55.434766</ele>
        <time>2020-08-13T11:57:06.903Z</time>
      </trkpt>
      <trkpt lat="65.64122" lon="12.37734">
        <ele>53.207066</ele>
        <time>2020-08-13T11:57:52.900Z</time>
      </trkpt>
      <trkpt lat="65.64339" lon="12.37802">
        <ele>54.945466</ele>
        <time>2020-08-13T11:58:51.886Z</time>
      </trkpt>
      <trkpt lat="65.6456" lon="12.37927">
        <ele>58.439019</ele>
        <time>2020-08-13T11:59:48.891Z</time>
      </trkpt>
      <trkpt lat="65.64776" lon="12.38042">
        <ele>57.347585</ele>
        <time>2020-08-13T12:00:37.931Z</time>
      </trkpt>
      <trkpt lat="65.65004" lon="12.38171">
        <ele>56.156958</ele>
        <time>2020-08-13T12:01:33.910Z</time>
      </trkpt>
      <trkpt lat="65.65235" lon="12.38249">
        <ele>53.983144</ele>
        <time>2020-08-13T12:02:28.894Z</time>
      </trkpt>
      <trkpt lat="65.65445" lon="12.3841">
        <ele>51.612035</ele>
        <time>2020-08-13T12:03:08.915Z</time>
      </trkpt>
      <trkpt lat="65.65645" lon="12.38636">
        <ele>51.142754</ele>
        <time>2020-08-13T12:03:48.889Z</time>
      </trkpt>
      <trkpt lat="65.65821" lon="12.38832">
        <ele>53.011541</ele>
        <time>2020-08-13T12:04:28.905Z</time>
      </trkpt>
      <trkpt lat="65.6603" lon="12.39087">
        <ele>54.636347</ele>
        <time>2020-08-13T12:05:22.940Z</time>
      </trkpt>
      <trkpt lat="65.66227" lon="12.39391">
        <ele>52.956641</ele>
        <time>2020-08-13T12:06:16.906Z</time>
      </trkpt>
      <trkpt lat="65.66413" lon="12.39677">
        <ele>49.286168</ele>
        <time>2020-08-13T12:06:56.911Z</time>
      </trkpt>
      <trkpt lat="65.66598" lon="12.39939">
        <ele>47.981518</ele>
        <time>2020-08-13T12:07:36.932Z</time>
      </trkpt>
      <trkpt lat="65.6679" lon="12.40208">
        <ele>47.125946</ele>
        <time>2020-08-13T12:08:16.912Z</time>
      </trkpt>
      <trkpt lat="65.66988" lon="12.40488">
        <ele>45.196657</ele>
        <time>2020-08-13T12:08:56.904Z</time>
      </trkpt>
      <trkpt lat="65.67176" lon="12.40754">
        <ele>46.406501</ele>
        <time>2020-08-13T12:09:36.925Z</time>
      </trkpt>
      <trkpt lat="65.67395" lon="12.40903">
        <ele>47.551384</ele>
        <time>2020-08-13T12:10:28.928Z</time>
      </trkpt>
      <trkpt lat="65.6764" lon="12.4089">
        <ele>45.499633</ele>
        <time>2020-08-13T12:11:08.908Z</time>
      </trkpt>
      <trkpt lat="65.67845" lon="12.41093">
        <ele>51.126199</ele>
        <time>2020-08-13T12:12:08.902Z</time>
      </trkpt>
      <trkpt lat="65.68025" lon="12.41368">
        <ele>55.995806</ele>
        <time>2020-08-13T12:13:24.905Z</time>
      </trkpt>
      <trkpt lat="65.68206" lon="12.4164">
        <ele>56.374595</ele>
        <time>2020-08-13T12:14:04.922Z</time>
      </trkpt>
      <trkpt lat="65.68388" lon="12.41835">
        <ele>56.957051</ele>
        <time>2020-08-13T12:14:48.938Z</time>
      </trkpt>
      <trkpt lat="65.68578" lon="12.42082">
        <ele>55.690964</ele>
        <time>2020-08-13T12:15:36.932Z</time>
      </trkpt>
      <trkpt lat="65.68765" lon="12.42393">
        <ele>56.692238</ele>
        <time>2020-08-13T12:16:30.917Z</time>
      </trkpt>
      <trkpt lat="65.6895" lon="12.42664">
        <ele>61.973867</ele>
        <time>2020-08-13T12:17:45.905Z</time>
      </trkpt>
      <trkpt lat="65.69114" lon="12.42958">
        <ele>64.031652</ele>
        <time>2020-08-13T12:18:45.908Z</time>
      </trkpt>
      <trkpt lat="65.69323" lon="12.43164">
        <ele>62.708772</ele>
        <time>2020-08-13T12:19:28.896Z</time>
      </trkpt>
      <trkpt lat="65.69536" lon="12.43367">
        <ele>57.808863</ele>
        <time>2020-08-13T12:20:08.900Z</time>
      </trkpt>
      <trkpt lat="65.69764" lon="12.43686">
        <ele>44.540096</ele>
        <time>2020-08-13T12:20:39.956Z</time>
      </trkpt>
      <trkpt lat="65.70003" lon="12.44052">
        <ele>41.667129</ele>
        <time>2020-08-13T12:21:21.913Z</time>
      </trkpt>
      <trkpt lat="65.70157" lon="12.44223">
        <ele>46.812663</ele>
        <time>2020-08-13T12:47:11.445Z</time>
      </trkpt>
      <trkpt lat="65.70316" lon="12.44531">
        <ele>52.273529</ele>
        <time>2020-08-13T12:58:26.466Z</time>
      </trkpt>
      <trkpt lat="65.70495" lon="12.44917">
        <ele>47.102927</ele>
        <time>2020-08-13T12:59:06.460Z</time>
      </trkpt>
      <trkpt lat="65.70657" lon="12.45229">
        <ele>46.002627</ele>
        <time>2020-08-13T12:59:46.455Z</time>
      </trkpt>
      <trkpt lat="65.70821" lon="12.45512">
        <ele>50.326481</ele>
        <time>2020-08-13T13:00:43.461Z</time>
      </trkpt>
      <trkpt lat="65.71032" lon="12.45722">
        <ele>50.807899</ele>
        <time>2020-08-13T13:01:39.452Z</time>
      </trkpt>
      <trkpt lat="65.71234" lon="12.45942">
        <ele>47.276484</ele>
        <time>2020-08-13T13:02:30.456Z</time>
      </trkpt>
      <trkpt lat="65.7142" lon="12.46134">
        <ele>40.304939</ele>
        <time>2020-08-13T13:03:25.465Z</time>
      </trkpt>
      <trkpt lat="65.71284" lon="12.46017">
        <ele>38.789264</ele>
        <time>2020-08-13T14:16:42.782Z</time>
      </trkpt>
      <trkpt lat="65.71434" lon="12.45831">
        <ele>43.470801</ele>
        <time>2020-08-13T14:29:34.805Z</time>
      </trkpt>
      <trkpt lat="65.71653" lon="12.45941">
        <ele>43.80526</ele>
        <time>2020-08-13T14:30:30.795Z</time>
      </trkpt>
      <trkpt lat="65.71886" lon="12.45911">
        <ele>37.379234</ele>
        <time>2020-08-13T14:31:10.798Z</time>
      </trkpt>
      <trkpt lat="65.72118" lon="12.45908">
        <ele>38.920559</ele>
        <time>2020-08-13T14:31:50.806Z</time>
      </trkpt>
      <trkpt lat="65.72346" lon="12.46042">
        <ele>46.027707</ele>
        <time>2020-08-13T14:32:30.854Z</time>
      </trkpt>
      <trkpt lat="65.72569" lon="12.46229">
        <ele>48.966592</ele>
        <time>2020-08-13T14:33:10.827Z</time>
      </trkpt>
      <trkpt lat="65.72789" lon="12.46403">
        <ele>47.154989</ele>
        <time>2020-08-13T14:33:50.852Z</time>
      </trkpt>
      <trkpt lat="65.73015" lon="12.4657">
        <ele>45.696414</ele>
        <time>2020-08-13T14:34:30.851Z</time>
      </trkpt>
      <trkpt lat="65.73234" lon="12.46741">
        <ele>46.815019</ele>
        <time>2020-08-13T14:35:10.817Z</time>
      </trkpt>
      <trkpt lat="65.73456" lon="12.46927">
        <ele>42.721044</ele>
        <time>2020-08-13T14:35:50.810Z</time>
      </trkpt>
      <trkpt lat="65.73676" lon="12.47106">
        <ele>37.204766</ele>
        <time>2020-08-13T14:36:30.839Z</time>
      </trkpt>
      <trkpt lat="65.73897" lon="12.47268">
        <ele>37.540997</ele>
        <time>2020-08-13T14:37:10.802Z</time>
      </trkpt>
      <trkpt lat="65.74117" lon="12.47412">
        <ele>42.594798</ele>
        <time>2020-08-13T14:37:50.805Z</time>
      </trkpt>
      <trkpt lat="65.74332" lon="12.4757">
        <ele>47.802826</ele>
        <time>2020-08-13T14:38:30.822Z</time>
      </trkpt>
      <trkpt lat="65.74554" lon="12.47717">
        <ele>42.575518</ele>
        <time>2020-08-13T14:39:10.811Z</time>
      </trkpt>
      <trkpt lat="65.74774" lon="12.47875">
        <ele>38.852384</ele>
        <time>2020-08-13T14:39:50.829Z</time>
      </trkpt>
      <trkpt lat="65.74988" lon="12.48031">
        <ele>39.535233</ele>
        <time>2020-08-13T14:40:30.795Z</time>
      </trkpt>
      <trkpt lat="65.75211" lon="12.48194">
        <ele>40.295909</ele>
        <time>2020-08-13T14:41:10.836Z</time>
      </trkpt>
      <trkpt lat="65.75429" lon="12.48352">
        <ele>35.583709</ele>
        <time>2020-08-13T14:41:50.801Z</time>
      </trkpt>
      <trkpt lat="65.75656" lon="12.48533">
        <ele>30.554964</ele>
        <time>2020-08-13T14:42:31.805Z</time>
      </trkpt>
      <trkpt lat="65.75873" lon="12.48712">
        <ele>27.75297</ele>
        <time>2020-08-13T14:43:11.807Z</time>
      </trkpt>
      <trkpt lat="65.76092" lon="12.4888">
        <ele>32.158115</ele>
        <time>2020-08-13T14:43:51.831Z</time>
      </trkpt>
      <trkpt lat="65.76322" lon="12.4907">
        <ele>34.875443</ele>
        <time>2020-08-13T14:44:33.831Z</time>
      </trkpt>
      <trkpt lat="65.76541" lon="12.49243">
        <ele>32.745873</ele>
        <time>2020-08-13T14:45:13.835Z</time>
      </trkpt>
      <trkpt lat="65.76761" lon="12.49411">
        <ele>28.759257</ele>
        <time>2020-08-13T14:45:53.835Z</time>
      </trkpt>
      <trkpt lat="65.7698" lon="12.49584">
        <ele>25.843876</ele>
        <time>2020-08-13T14:46:33.810Z</time>
      </trkpt>
      <trkpt lat="65.77192" lon="12.49756">
        <ele>30.453306</ele>
        <time>2020-08-13T14:47:13.822Z</time>
      </trkpt>
      <trkpt lat="65.77412" lon="12.4992">
        <ele>32.696351</ele>
        <time>2020-08-13T14:47:53.824Z</time>
      </trkpt>
      <trkpt lat="65.7763" lon="12.50094">
        <ele>26.453592</ele>
        <time>2020-08-13T14:48:33.818Z</time>
      </trkpt>
      <trkpt lat="65.77849" lon="12.50259">
        <ele>26.387915</ele>
        <time>2020-08-13T14:49:13.820Z</time>
      </trkpt>
      <trkpt lat="65.7807" lon="12.50441">
        <ele>25.419748</ele>
        <time>2020-08-13T14:49:53.849Z</time>
      </trkpt>
      <trkpt lat="65.78287" lon="12.50617">
        <ele>22.42336</ele>
        <time>2020-08-13T14:50:33.784Z</time>
      </trkpt>
      <trkpt lat="65.78511" lon="12.50774">
        <ele>27.643179</ele>
        <time>2020-08-13T14:51:13.811Z</time>
      </trkpt>
      <trkpt lat="65.78745" lon="12.50866">
        <ele>42.506943</ele>
        <time>2020-08-13T14:51:53.794Z</time>
      </trkpt>
      <trkpt lat="65.78975" lon="12.50945">
        <ele>42.101674</ele>
        <time>2020-08-13T14:52:33.814Z</time>
      </trkpt>
      <trkpt lat="65.79207" lon="12.51024">
        <ele>40.331302</ele>
        <time>2020-08-13T14:53:13.790Z</time>
      </trkpt>
      <trkpt lat="65.79443" lon="12.51089">
        <ele>41.039073</ele>
        <time>2020-08-13T14:53:53.793Z</time>
      </trkpt>
      <trkpt lat="65.7967" lon="12.51164">
        <ele>33.300201</ele>
        <time>2020-08-13T14:54:33.821Z</time>
      </trkpt>
      <trkpt lat="65.79904" lon="12.5123">
        <ele>32.444136</ele>
        <time>2020-08-13T14:55:13.797Z</time>
      </trkpt>
      <trkpt lat="65.80134" lon="12.5124">
        <ele>35.350256</ele>
        <time>2020-08-13T14:55:53.788Z</time>
      </trkpt>
      <trkpt lat="65.80343" lon="12.50992">
        <ele>45.259679</ele>
        <time>2020-08-13T14:56:33.797Z</time>
      </trkpt>
      <trkpt lat="65.80507" lon="12.50591">
        <ele>43.986261</ele>
        <time>2020-08-13T14:57:13.814Z</time>
      </trkpt>
      <trkpt lat="65.80639" lon="12.50183">
        <ele>44.078952</ele>
        <time>2020-08-13T14:58:01.789Z</time>
      </trkpt>
      <trkpt lat="65.8074" lon="12.49761">
        <ele>43.084706</ele>
        <time>2020-08-13T14:59:21.807Z</time>
      </trkpt>
      <trkpt lat="65.80838" lon="12.49347">
        <ele>36.624802</ele>
        <time>2020-08-13T15:03:38.800Z</time>
      </trkpt>
      <trkpt lat="65.80893" lon="12.48835">
        <ele>41.991604</ele>
        <time>2020-08-13T15:04:23.806Z</time>
      </trkpt>
      <trkpt lat="65.81051" lon="12.45717">
        <ele>44.429904</ele>
        <time>2020-08-13T15:07:55.980Z</time>
      </trkpt>
      <trkpt lat="65.8107" lon="12.45125">
        <ele>30.127199</ele>
        <time>2020-08-13T15:08:36.006Z</time>
      </trkpt>
      <trkpt lat="65.81102" lon="12.44524">
        <ele>29.014332</ele>
        <time>2020-08-13T15:09:15.958Z</time>
      </trkpt>
      <trkpt lat="65.81175" lon="12.43965">
        <ele>36.335465</ele>
        <time>2020-08-13T15:09:55.985Z</time>
      </trkpt>
      <trkpt lat="65.81353" lon="12.43555">
        <ele>43.092318</ele>
        <time>2020-08-13T15:10:36.001Z</time>
      </trkpt>
      <trkpt lat="65.81567" lon="12.43339">
        <ele>41.182771</ele>
        <time>2020-08-13T15:11:15.987Z</time>
      </trkpt>
      <trkpt lat="65.81795" lon="12.43306">
        <ele>44.936533</ele>
        <time>2020-08-13T15:11:57.979Z</time>
      </trkpt>
      <trkpt lat="65.82017" lon="12.43273">
        <ele>40.282661</ele>
        <time>2020-08-13T15:13:02.023Z</time>
      </trkpt>
      <trkpt lat="65.82185" lon="12.42999">
        <ele>39.656646</ele>
        <time>2020-08-13T15:18:36.971Z</time>
      </trkpt>
      <trkpt lat="65.82321" lon="12.4262">
        <ele>48.874034</ele>
        <time>2020-08-13T15:19:54.972Z</time>
      </trkpt>
      <trkpt lat="65.82436" lon="12.42145">
        <ele>47.703755</ele>
        <time>2020-08-13T15:20:56.952Z</time>
      </trkpt>
      <trkpt lat="65.82572" lon="12.41618">
        <ele>45.656902</ele>
        <time>2020-08-13T15:21:37.995Z</time>
      </trkpt>
      <trkpt lat="65.8273" lon="12.41177">
        <ele>46.23334</ele>
        <time>2020-08-13T15:22:17.957Z</time>
      </trkpt>
      <trkpt lat="65.82879" lon="12.40762">
        <ele>46.588707</ele>
        <time>2020-08-13T15:22:57.992Z</time>
      </trkpt>
      <trkpt lat="65.83037" lon="12.40403">
        <ele>45.543385</ele>
        <time>2020-08-13T15:23:37.979Z</time>
      </trkpt>
      <trkpt lat="65.83246" lon="12.40149">
        <ele>49.713679</ele>
        <time>2020-08-13T15:24:30.951Z</time>
      </trkpt>
      <trkpt lat="65.83444" lon="12.39902">
        <ele>46.90672</ele>
        <time>2020-08-13T15:25:13.960Z</time>
      </trkpt>
      <trkpt lat="65.8366" lon="12.3967">
        <ele>45.094351</ele>
        <time>2020-08-13T15:25:53.968Z</time>
      </trkpt>
      <trkpt lat="65.83862" lon="12.3957">
        <ele>45.800478</ele>
        <time>2020-08-13T15:26:33.981Z</time>
      </trkpt>
      <trkpt lat="65.84081" lon="12.39468">
        <ele>44.948052</ele>
        <time>2020-08-13T15:27:23.967Z</time>
      </trkpt>
      <trkpt lat="65.84295" lon="12.39444">
        <ele>48.926964</ele>
        <time>2020-08-13T15:28:13.962Z</time>
      </trkpt>
      <trkpt lat="65.84509" lon="12.39552">
        <ele>49.134917</ele>
        <time>2020-08-13T15:30:18.006Z</time>
      </trkpt>
      <trkpt lat="65.84715" lon="12.39819">
        <ele>46.316435</ele>
        <time>2020-08-13T15:31:17.962Z</time>
      </trkpt>
      <trkpt lat="65.84837" lon="12.40331">
        <ele>47.467869</ele>
        <time>2020-08-13T15:32:14.984Z</time>
      </trkpt>
      <trkpt lat="65.84981" lon="12.40776">
        <ele>46.855781</ele>
        <time>2020-08-13T15:33:04.967Z</time>
      </trkpt>
      <trkpt lat="65.85153" lon="12.41295">
        <ele>40.595787</ele>
        <time>2020-08-13T15:33:44.974Z</time>
      </trkpt>
      <trkpt lat="65.85292" lon="12.41709">
        <ele>40.834105</ele>
        <time>2020-08-13T15:34:34.969Z</time>
      </trkpt>
      <trkpt lat="65.85449" lon="12.42122">
        <ele>41.561219</ele>
        <time>2020-08-13T15:35:30.961Z</time>
      </trkpt>
      <trkpt lat="65.85615" lon="12.42391">
        <ele>40.784582</ele>
        <time>2020-08-13T15:36:16.977Z</time>
      </trkpt>
      <trkpt lat="65.85686" lon="12.42873">
        <ele>40.296065</ele>
        <time>2020-08-13T15:37:03.965Z</time>
      </trkpt>
      <trkpt lat="65.8582" lon="12.43253">
        <ele>38.541495</ele>
        <time>2020-08-13T15:37:49.986Z</time>
      </trkpt>
      <trkpt lat="65.85975" lon="12.43546">
        <ele>39.630086</ele>
        <time>2020-08-13T15:38:32.999Z</time>
      </trkpt>
      <trkpt lat="65.86139" lon="12.43943">
        <ele>39.864032</ele>
        <time>2020-08-13T15:39:23.970Z</time>
      </trkpt>
      <trkpt lat="65.86275" lon="12.44316">
        <ele>37.516163</ele>
        <time>2020-08-13T15:40:03.998Z</time>
      </trkpt>
      <trkpt lat="65.86406" lon="12.44675">
        <ele>39.025389</ele>
        <time>2020-08-13T15:40:43.988Z</time>
      </trkpt>
      <trkpt lat="65.86534" lon="12.45033">
        <ele>39.017208</ele>
        <time>2020-08-13T15:41:24.979Z</time>
      </trkpt>
      <trkpt lat="65.86679" lon="12.45426">
        <ele>40.725788</ele>
        <time>2020-08-13T15:42:13.968Z</time>
      </trkpt>
      <trkpt lat="65.86846" lon="12.45878">
        <ele>43.424442</ele>
        <time>2020-08-13T15:43:14.002Z</time>
      </trkpt>
      <trkpt lat="65.86966" lon="12.46289">
        <ele>43.603263</ele>
        <time>2020-08-13T15:43:58.963Z</time>
      </trkpt>
      <trkpt lat="65.87042" lon="12.4682">
        <ele>49.22114</ele>
        <time>2020-08-13T15:44:58.955Z</time>
      </trkpt>
      <trkpt lat="65.87178" lon="12.46693">
        <ele>49.067021</ele>
        <time>2020-08-13T15:46:02.963Z</time>
      </trkpt>
    </trkseg>
  </trk>
</gpx>